Lake Isabella, CA

5:54 AM PDT on September 22, 2014 (GMT -0700)
Squirrel Mountain Valley | Change Station
CLOSE
Current Station
Personal Weather Station
Location: Squirrel Mountain Valley, CA
Elevation: 2884 ft
Nearby Weather Stations

Elev 2884 ft 35.63 °N, 118.41 °W | Updated 8 seconds ago

Clear
Clear
59.4 °F
Feels Like 59.4 °F
N
0.0
Wind Variable Wind from WSW
Gusts 0.0 mph

Today
High -- | Low -- °F
--% Chance of Precip.
Yesterday
High -- | Low -- °F
Precip. -- in
6:41 AM 6:50 PM
Waning Crescent, 3% visible
Pressure 30.13 in
Visibility 10.0 miles
Clouds Clear
Dew Point 48 °F
Humidity 65%
Rainfall 0.00 in
Snow Depth 1 in , 0 in , 0 in
UV 0 out of 12
Pollen 6.80 out of 12
PM2.5 Good
Flu Activity Not available.
METAR KTSP 221235Z AUTO 15004KT 10SM CLR 09/07 A3013 RMK AO2

More Conditions Fewer Conditions

Pressure 30.13 in
Visibility 10.0 miles
Clouds Clear
Dew Point 48 °F
Humidity 65%
Rainfall 0.00 in
Snow Depth 1 in , 0 in , 0 in
UV 0 out of 12
Pollen 6.80 out of 12
PM2.5 Good
Flu Activity Not available.
METAR KTSP 221235Z AUTO 15004KT 10SM CLR 09/07 A3013 RMK AO2

More Conditions Fewer Conditions

10-Day Weather Forecast

Almanac

Astronomy

Sep. 22, 2014 Rise Set
Actual Time 6:41 AM PDT 6:50 PM PDT
Civil Twilight 6:16 AM PDT 7:15 PM PDT
Nautical Twilight 5:46 AM PDT 7:45 PM PDT
Astronomical Twilight 5:16 AM PDT 8:15 PM PDT
Moon 5:16 AM PDT 5:59 PM PDT
Length of Visible Light 12h 59m
Length of Day
12h 08m
Tomorrow will be 2m 14s shorter.
Waning Crescent, 3% of the Moon is Illuminated
Today
Waning Crescent
Sep 24
New
Oct 1
First Quarter
Oct 8
Full
Oct 15
Last Quarter

Today's Extremes

State Highs State Lows

Community

WunderPhotos

Upload Photos

1,755,419 photos uploaded!

Nearby

Air Quality

  Air Quality AQ Index Pollutant
Yesterday Good
OZONE
Yesterday Good
PM2.5
Current Good
PM2.5
Monday Moderate
OZONE
Tuesday Moderate
OZONE
Wednesday Moderate
OZONE
Thursday Moderate
OZONE
Friday Moderate
OZONE

Snow Depth

Station Depth Elevation
Echo Peak 1 in 7800 ft
Independence Creek 0 in 6500 ft
Forestdale Creek 0 in 8029 ft
Crowder Flat 0 in 5100 ft
CSS Lab 1 in 6900 ft

Earthquake Activity

City Distance Mag. Time & Date
Inyokern, California 43 miles 3.1 5:33 PM PDT
2014-09-19
Corcoran, California 75 miles 2.9 3:59 PM PDT
2014-09-18
Minimum magnitude displayed is 2.5.

Coastal Water Temperatures

Place Temperature
No Stations Reporting

Nearby Weather Stations